createdAt,value
2022-08-25T00:01:47.850Z,16.80
2022-08-25T00:04:15.934Z,16.75
2022-08-25T00:06:44.844Z,16.62
2022-08-25T00:09:12.706Z,16.55
2022-08-25T00:11:39.914Z,16.52
2022-08-25T00:14:09.002Z,16.48
2022-08-25T00:16:35.540Z,16.47
2022-08-25T00:19:04.422Z,16.48
2022-08-25T00:21:31.928Z,16.46
2022-08-25T00:23:58.653Z,16.44
2022-08-25T00:26:26.276Z,16.45
2022-08-25T00:28:54.204Z,16.45
2022-08-25T00:31:37.830Z,16.45
2022-08-25T00:34:08.236Z,16.46
2022-08-25T00:36:35.070Z,16.48
2022-08-25T00:39:01.534Z,16.46
2022-08-25T00:41:28.168Z,16.45
2022-08-25T00:43:56.837Z,16.45
2022-08-25T00:46:28.607Z,16.46
2022-08-25T00:49:00.350Z,16.47
2022-08-25T00:51:52.948Z,16.47
2022-08-25T00:54:22.710Z,16.46
2022-08-25T00:56:49.442Z,16.46
2022-08-25T00:59:16.573Z,16.43
2022-08-25T01:01:43.268Z,16.34
2022-08-25T01:04:09.716Z,16.29
2022-08-25T01:06:38.428Z,16.16
2022-08-25T01:09:05.312Z,16.05
2022-08-25T01:11:31.816Z,16.06
2022-08-25T01:13:59.084Z,16.01
2022-08-25T01:16:25.652Z,15.96
2022-08-25T01:18:53.627Z,15.94
2022-08-25T01:21:21.673Z,15.95
2022-08-25T01:23:49.306Z,15.95
2022-08-25T01:26:21.095Z,15.97
2022-08-25T01:29:16.222Z,15.95
2022-08-25T01:31:42.745Z,15.90
2022-08-25T01:34:09.907Z,15.87
2022-08-25T01:36:36.552Z,15.87
2022-08-25T01:39:03.270Z,15.89
2022-08-25T01:41:29.704Z,15.88
2022-08-25T01:43:56.502Z,15.89
2022-08-25T01:46:23.140Z,15.91
2022-08-25T01:48:49.626Z,15.92
2022-08-25T01:51:16.589Z,15.94
2022-08-25T01:53:44.413Z,15.97
2022-08-25T01:56:12.119Z,16.00
2022-08-25T01:58:40.000Z,16.01
2022-08-25T02:01:08.425Z,16.03
2022-08-25T02:03:38.768Z,16.05
2022-08-25T02:06:08.829Z,16.08
2022-08-25T02:08:35.424Z,16.09
2022-08-25T02:11:02.088Z,16.08
2022-08-25T02:13:31.484Z,16.08
2022-08-25T02:16:01.177Z,16.08
2022-08-25T02:18:27.806Z,16.08
2022-08-25T02:20:54.305Z,16.07
2022-08-25T02:23:21.174Z,16.06
2022-08-25T02:25:47.550Z,16.10
2022-08-25T02:28:14.282Z,16.17
2022-08-25T02:30:42.525Z,16.22
2022-08-25T02:33:09.121Z,16.26
2022-08-25T02:35:35.763Z,16.29
2022-08-25T02:38:02.409Z,16.33
2022-08-25T02:40:28.851Z,16.33
2022-08-25T02:42:55.583Z,16.35
2022-08-25T02:45:22.065Z,16.37
2022-08-25T02:47:48.529Z,16.39
2022-08-25T02:50:15.115Z,16.41
2022-08-25T02:52:42.391Z,16.44
2022-08-25T02:55:12.845Z,16.48
2022-08-25T02:57:39.718Z,16.49
2022-08-25T03:00:07.018Z,16.49
2022-08-25T03:02:33.755Z,16.51
2022-08-25T03:05:00.309Z,16.53
2022-08-25T03:07:26.765Z,16.55
2022-08-25T03:09:54.332Z,16.56
2022-08-25T03:12:22.397Z,16.57
2022-08-25T03:14:48.924Z,16.55
2022-08-25T03:17:16.265Z,16.60
2022-08-25T03:19:42.721Z,16.62
2022-08-25T03:22:09.110Z,16.61
2022-08-25T03:24:35.551Z,16.57
2022-08-25T03:27:01.973Z,16.59
2022-08-25T03:29:30.787Z,16.64
2022-08-25T03:32:00.819Z,16.71
2022-08-25T03:34:29.261Z,16.72
2022-08-25T03:36:56.325Z,16.70
2022-08-25T03:39:23.884Z,16.68
2022-08-25T03:41:51.763Z,16.66
2022-08-25T03:44:18.646Z,16.66
2022-08-25T03:46:48.907Z,16.60
2022-08-25T03:49:17.700Z,16.60
2022-08-25T03:51:47.024Z,16.58
2022-08-25T03:54:14.409Z,16.55
2022-08-25T03:56:40.962Z,16.52
2022-08-25T03:59:10.606Z,16.48
2022-08-25T04:01:38.552Z,16.43
2022-08-25T04:04:05.798Z,16.35
2022-08-25T04:06:32.364Z,16.34
2022-08-25T04:08:58.896Z,16.28
2022-08-25T04:11:26.140Z,16.28
2022-08-25T04:13:53.146Z,16.25
2022-08-25T04:16:22.070Z,16.24
2022-08-25T04:18:50.174Z,16.25
2022-08-25T04:21:17.587Z,16.23
2022-08-25T04:23:45.078Z,16.19
2022-08-25T04:26:12.494Z,16.12
2022-08-25T04:28:38.899Z,16.12
2022-08-25T04:31:06.387Z,16.14
2022-08-25T04:33:32.861Z,16.17
2022-08-25T04:35:59.254Z,16.19
2022-08-25T04:38:26.264Z,16.24
2022-08-25T04:40:56.483Z,16.29
2022-08-25T04:43:22.940Z,16.35
2022-08-25T04:45:49.409Z,16.42
2022-08-25T04:48:15.871Z,16.51
2022-08-25T04:50:43.930Z,16.57
2022-08-25T04:53:11.005Z,16.66
2022-08-25T04:55:41.396Z,16.77
2022-08-25T04:58:08.293Z,16.89
2022-08-25T05:00:42.081Z,16.99
2022-08-25T05:03:08.667Z,17.11
2022-08-25T05:05:38.332Z,17.21
2022-08-25T05:08:06.163Z,17.33
2022-08-25T05:10:33.411Z,17.40
2022-08-25T05:13:00.009Z,17.49
2022-08-25T05:15:45.310Z,17.62
2022-08-25T05:18:13.398Z,17.76
2022-08-25T05:20:40.083Z,17.88
2022-08-25T05:23:06.476Z,17.99
2022-08-25T05:25:34.694Z,18.18
2022-08-25T05:28:01.567Z,18.57
2022-08-25T05:30:28.102Z,18.96
2022-08-25T05:32:54.721Z,19.06
2022-08-25T05:35:21.189Z,19.14
2022-08-25T05:37:47.592Z,19.42
2022-08-25T05:40:15.404Z,19.81
2022-08-25T05:42:41.933Z,20.29
2022-08-25T05:45:09.856Z,20.67
2022-08-25T05:47:42.418Z,21.05
2022-08-25T05:50:09.453Z,21.29
2022-08-25T05:52:35.931Z,21.63
2022-08-25T05:55:02.498Z,22.04
2022-08-25T05:57:29.054Z,22.23
2022-08-25T05:59:55.538Z,22.39
2022-08-25T06:02:40.593Z,22.43
2022-08-25T06:05:08.997Z,22.30
2022-08-25T06:07:36.237Z,22.07
2022-08-25T06:10:05.301Z,21.73
2022-08-25T06:12:33.298Z,21.33
2022-08-25T06:14:59.764Z,21.17
2022-08-25T06:17:26.364Z,21.01
2022-08-25T06:19:53.724Z,20.88
2022-08-25T06:22:21.362Z,20.84
2022-08-25T06:24:48.124Z,20.71
2022-08-25T06:27:14.567Z,20.78
2022-08-25T06:29:40.937Z,20.77
2022-08-25T06:32:08.943Z,20.71
2022-08-25T06:34:35.347Z,20.72
2022-08-25T06:37:01.963Z,20.64
2022-08-25T06:39:28.390Z,20.81
2022-08-25T06:41:56.468Z,20.72
2022-08-25T06:44:24.004Z,20.69
2022-08-25T06:46:50.969Z,20.86
2022-08-25T06:49:17.399Z,20.92
2022-08-25T06:51:43.889Z,21.00
2022-08-25T06:54:10.388Z,21.07
2022-08-25T06:56:36.947Z,21.16
2022-08-25T06:59:04.277Z,21.29
2022-08-25T07:01:32.156Z,21.36
2022-08-25T07:03:59.850Z,21.43
2022-08-25T07:06:27.244Z,21.47
2022-08-25T07:08:53.963Z,21.65
2022-08-25T07:11:23.425Z,21.70
2022-08-25T07:13:50.449Z,21.80
2022-08-25T07:16:19.952Z,21.89
2022-08-25T07:18:47.455Z,22.04
2022-08-25T07:21:14.254Z,22.25
2022-08-25T07:23:41.314Z,22.41
2022-08-25T07:26:15.770Z,22.63
2022-08-25T07:28:47.890Z,22.81
2022-08-25T07:31:14.358Z,22.88
2022-08-25T07:34:00.820Z,22.95
2022-08-25T07:36:27.294Z,23.24
2022-08-25T07:38:54.355Z,23.44
2022-08-25T07:41:21.662Z,23.65
2022-08-25T07:43:48.600Z,23.77
2022-08-25T07:46:18.925Z,23.91
2022-08-25T07:48:45.513Z,24.08
2022-08-25T07:51:19.906Z,24.15
2022-08-25T07:53:46.402Z,24.26
2022-08-25T07:56:14.973Z,24.26
2022-08-25T07:58:42.932Z,24.26
2022-08-25T08:01:17.499Z,24.30
2022-08-25T08:03:50.267Z,24.36
2022-08-25T08:06:18.514Z,24.54
2022-08-25T08:08:45.815Z,24.75
2022-08-25T08:11:17.236Z,24.86
2022-08-25T08:13:44.384Z,24.89
2022-08-25T08:16:12.017Z,24.78
2022-08-25T08:18:39.840Z,24.72
2022-08-25T08:21:11.379Z,24.64
2022-08-25T08:23:37.964Z,24.58
2022-08-25T08:26:04.925Z,24.64
2022-08-25T08:28:31.333Z,24.67
2022-08-25T08:30:57.852Z,24.69
2022-08-25T08:33:25.106Z,24.72
2022-08-25T08:36:05.189Z,24.73
2022-08-25T08:38:32.159Z,24.76
2022-08-25T08:41:54.238Z,24.78
2022-08-25T08:44:27.597Z,24.75
2022-08-25T08:47:04.991Z,24.76
2022-08-25T08:49:40.869Z,24.78
2022-08-25T08:52:11.650Z,24.76
2022-08-25T08:54:41.338Z,24.69
2022-08-25T08:57:20.355Z,24.69
2022-08-25T08:59:52.927Z,24.66
2022-08-25T09:02:51.565Z,24.67
2022-08-25T09:05:20.882Z,24.60
2022-08-25T09:07:49.514Z,24.52
2022-08-25T09:10:22.999Z,24.60
2022-08-25T09:13:12.238Z,24.83
2022-08-25T09:16:01.337Z,24.91
2022-08-25T09:18:50.719Z,25.19
2022-08-25T09:21:30.288Z,25.46
2022-08-25T09:24:05.743Z,25.66
2022-08-25T09:26:39.127Z,25.82
2022-08-25T09:29:16.798Z,25.92
2022-08-25T09:31:44.926Z,25.91
2022-08-25T09:34:14.059Z,25.90
2022-08-25T09:36:40.607Z,25.94
2022-08-25T09:39:07.501Z,25.93
2022-08-25T09:41:42.281Z,25.98
2022-08-25T09:44:19.360Z,25.97
2022-08-25T09:47:02.036Z,25.92
2022-08-25T09:49:39.743Z,25.91
2022-08-25T09:52:18.362Z,25.91
2022-08-25T09:54:47.646Z,25.99
2022-08-25T09:57:30.815Z,26.28
2022-08-25T09:59:57.853Z,26.48
2022-08-25T10:02:28.823Z,26.61
2022-08-25T10:04:55.781Z,26.51
2022-08-25T10:07:27.706Z,26.54
2022-08-25T10:10:02.454Z,26.63
2022-08-25T10:12:42.831Z,26.66
2022-08-25T10:15:29.956Z,26.79
2022-08-25T10:17:58.816Z,26.97
2022-08-25T10:20:30.897Z,27.11
2022-08-25T10:23:09.749Z,27.10
2022-08-25T10:25:40.250Z,27.05
2022-08-25T10:28:09.669Z,27.03
2022-08-25T10:30:48.221Z,27.20
2022-08-25T10:33:33.951Z,27.23
2022-08-25T10:36:14.734Z,27.15
2022-08-25T10:38:57.735Z,27.02
2022-08-25T10:41:42.212Z,27.04
2022-08-25T10:44:29.637Z,26.92
2022-08-25T10:47:05.482Z,26.91
2022-08-25T10:49:45.315Z,26.82
2022-08-25T10:52:16.361Z,26.94
2022-08-25T10:54:58.174Z,27.18
2022-08-25T10:57:45.891Z,27.10
2022-08-25T11:00:17.761Z,26.95
2022-08-25T11:02:44.415Z,27.05
2022-08-25T11:05:18.399Z,27.09
2022-08-25T11:07:54.249Z,27.22
2022-08-25T11:10:37.006Z,27.35
2022-08-25T11:13:07.675Z,27.32
2022-08-25T11:15:54.820Z,27.38
2022-08-25T11:18:32.009Z,27.23
2022-08-25T11:21:12.013Z,27.38
2022-08-25T11:23:44.869Z,27.64
2022-08-25T11:26:12.536Z,27.97
2022-08-25T11:28:51.892Z,28.17
2022-08-25T11:31:19.827Z,27.97
2022-08-25T11:33:46.361Z,28.12
2022-08-25T11:36:13.562Z,28.21
2022-08-25T11:38:47.922Z,28.14
2022-08-25T11:41:23.610Z,28.00
2022-08-25T11:43:58.975Z,28.08
2022-08-25T11:46:44.018Z,28.12
2022-08-25T11:49:21.797Z,27.95
2022-08-25T11:51:49.116Z,27.80
2022-08-25T11:54:18.175Z,27.52
2022-08-25T11:56:57.501Z,27.59
2022-08-25T11:59:42.887Z,27.79
2022-08-25T12:02:27.956Z,27.89
2022-08-25T12:04:55.494Z,28.09
2022-08-25T12:07:24.201Z,28.11
2022-08-25T12:09:51.054Z,28.03
2022-08-25T12:12:35.950Z,28.13
2022-08-25T12:15:20.817Z,28.28
2022-08-25T12:18:08.551Z,28.44
2022-08-25T12:20:53.740Z,28.56
2022-08-25T12:23:37.800Z,28.76
2022-08-25T12:26:13.897Z,28.76
2022-08-25T12:29:01.107Z,28.85
2022-08-25T12:31:47.378Z,28.86
2022-08-25T12:34:26.934Z,29.07
2022-08-25T12:37:06.157Z,29.09
2022-08-25T12:39:37.415Z,29.11
2022-08-25T12:42:07.260Z,29.15
2022-08-25T12:44:36.427Z,29.22
2022-08-25T12:47:07.910Z,29.17
2022-08-25T12:49:35.875Z,29.26
2022-08-25T12:52:28.379Z,29.24
2022-08-25T12:54:54.823Z,29.19
2022-08-25T12:57:29.382Z,29.31
2022-08-25T12:59:57.564Z,29.34
2022-08-25T13:02:39.855Z,29.30
2022-08-25T13:05:17.930Z,29.14
2022-08-25T13:07:50.513Z,28.95
2022-08-25T13:10:19.851Z,28.64
2022-08-25T13:12:52.477Z,28.49
2022-08-25T13:15:48.968Z,28.50
2022-08-25T13:18:32.536Z,28.64
2022-08-25T13:21:19.676Z,28.85
2022-08-25T13:23:48.289Z,29.08
2022-08-25T13:26:15.939Z,29.01
2022-08-25T13:28:50.438Z,29.15
2022-08-25T13:31:22.484Z,29.22
2022-08-25T13:33:59.842Z,29.32
2022-08-25T13:36:51.099Z,29.32
2022-08-25T13:39:45.381Z,29.42
2022-08-25T13:42:16.175Z,29.35
2022-08-25T13:44:52.425Z,29.40
2022-08-25T13:47:43.344Z,29.38
2022-08-25T13:50:20.598Z,29.30
2022-08-25T13:52:52.824Z,29.33
2022-08-25T13:55:20.728Z,29.22
2022-08-25T13:57:47.499Z,29.09
2022-08-25T14:00:25.070Z,28.99
2022-08-25T14:02:58.543Z,28.71
2022-08-25T14:05:41.815Z,28.42
2022-08-25T14:08:28.432Z,28.14
2022-08-25T14:11:15.070Z,28.12
2022-08-25T14:13:44.429Z,28.31
2022-08-25T14:16:22.780Z,28.34
2022-08-25T14:18:58.796Z,28.44
2022-08-25T14:21:28.303Z,28.60
2022-08-25T14:23:55.462Z,28.60
2022-08-25T14:26:22.349Z,28.73
2022-08-25T14:28:49.571Z,28.69
2022-08-25T14:31:23.800Z,28.72
2022-08-25T14:34:02.462Z,28.79
2022-08-25T14:36:31.654Z,28.80
2022-08-25T14:38:58.144Z,28.93
2022-08-25T14:41:25.498Z,28.90
2022-08-25T14:43:52.165Z,28.91
2022-08-25T14:46:23.416Z,28.80
2022-08-25T14:48:54.705Z,28.78
2022-08-25T14:51:22.282Z,28.72
2022-08-25T14:53:49.143Z,28.82
2022-08-25T14:56:15.608Z,28.81
2022-08-25T14:58:51.083Z,28.85
2022-08-25T15:01:28.914Z,28.77
2022-08-25T15:03:58.290Z,28.71
2022-08-25T15:06:24.731Z,28.79
2022-08-25T15:09:11.442Z,28.73
2022-08-25T15:11:42.744Z,28.58
2022-08-25T15:14:11.007Z,28.52
2022-08-25T15:16:41.862Z,28.37
2022-08-25T15:19:09.720Z,28.39
2022-08-25T15:21:36.661Z,28.35
2022-08-25T15:24:04.807Z,28.39
2022-08-25T15:26:32.313Z,28.32
2022-08-25T15:28:59.314Z,28.34
2022-08-25T15:31:26.526Z,28.43
2022-08-25T15:33:53.626Z,28.61
2022-08-25T15:36:22.948Z,28.48
2022-08-25T15:38:51.133Z,28.31
2022-08-25T15:41:17.849Z,28.14
2022-08-25T15:43:44.261Z,28.06
2022-08-25T15:46:14.281Z,28.01
2022-08-25T15:48:40.977Z,27.93
2022-08-25T15:51:08.575Z,27.83
2022-08-25T15:53:36.378Z,27.75
2022-08-25T15:56:06.180Z,27.78
2022-08-25T15:58:35.353Z,27.69
2022-08-25T16:01:02.415Z,27.64
2022-08-25T16:03:28.973Z,27.75
2022-08-25T16:05:55.508Z,27.65
2022-08-25T16:08:21.960Z,27.60
2022-08-25T16:10:48.358Z,27.46
2022-08-25T16:13:16.263Z,27.38
2022-08-25T16:15:54.093Z,27.45
2022-08-25T16:18:21.741Z,27.36
2022-08-25T16:20:48.508Z,27.37
2022-08-25T16:23:16.256Z,27.26
2022-08-25T16:25:43.599Z,27.20
2022-08-25T16:28:14.170Z,27.09
2022-08-25T16:30:44.253Z,27.06
2022-08-25T16:33:19.309Z,27.04
2022-08-25T16:35:47.456Z,27.00
2022-08-25T16:38:15.669Z,26.90
2022-08-25T16:40:42.598Z,26.77
2022-08-25T16:43:10.134Z,26.61
2022-08-25T16:45:36.610Z,26.61
2022-08-25T16:48:04.920Z,26.53
2022-08-25T16:50:31.562Z,26.62
2022-08-25T16:53:19.624Z,26.56
2022-08-25T16:55:50.344Z,26.52
2022-08-25T16:58:17.846Z,26.43
2022-08-25T17:00:45.828Z,26.29
2022-08-25T17:03:12.970Z,26.17
2022-08-25T17:05:40.504Z,26.02
2022-08-25T17:08:25.716Z,25.90
2022-08-25T17:10:52.542Z,25.84
2022-08-25T17:13:18.971Z,25.74
2022-08-25T17:15:47.146Z,25.74
2022-08-25T17:18:13.922Z,25.68
2022-08-25T17:20:42.087Z,25.59
2022-08-25T17:23:12.390Z,25.49
2022-08-25T17:25:41.307Z,25.36
2022-08-25T17:28:09.549Z,25.25
2022-08-25T17:30:39.053Z,25.19
2022-08-25T17:33:05.502Z,25.22
2022-08-25T17:35:32.175Z,25.10
2022-08-25T17:37:58.596Z,25.05
2022-08-25T17:40:25.089Z,25.01
2022-08-25T17:42:53.499Z,24.88
2022-08-25T17:45:19.892Z,24.79
2022-08-25T17:47:46.287Z,24.74
2022-08-25T17:50:12.695Z,24.66
2022-08-25T17:52:39.478Z,24.60
2022-08-25T17:55:06.209Z,24.58
2022-08-25T17:57:35.214Z,24.48
2022-08-25T18:00:09.069Z,24.52
2022-08-25T18:02:36.978Z,24.42
2022-08-25T18:05:05.214Z,24.39
2022-08-25T18:07:32.022Z,24.31
2022-08-25T18:09:58.422Z,24.22
2022-08-25T18:12:27.412Z,24.12
2022-08-25T18:14:54.065Z,24.01
2022-08-25T18:17:21.948Z,23.92
2022-08-25T18:19:49.521Z,23.87
2022-08-25T18:22:16.762Z,23.81
2022-08-25T18:24:44.478Z,23.73
2022-08-25T18:27:11.800Z,23.72
2022-08-25T18:29:38.237Z,23.69
2022-08-25T18:32:07.475Z,23.62
2022-08-25T18:34:34.064Z,23.58
2022-08-25T18:37:22.932Z,23.53
2022-08-25T18:40:08.820Z,23.47
2022-08-25T18:42:36.402Z,23.44
2022-08-25T18:45:05.747Z,23.38
2022-08-25T18:47:32.591Z,23.34
2022-08-25T18:50:02.658Z,23.27
2022-08-25T18:52:30.885Z,23.23
2022-08-25T18:54:58.345Z,23.17
2022-08-25T18:57:24.732Z,23.14
2022-08-25T18:59:51.395Z,23.11
2022-08-25T19:02:18.202Z,23.07
2022-08-25T19:04:44.943Z,23.04
2022-08-25T19:07:13.200Z,23.02
2022-08-25T19:09:39.651Z,22.97
2022-08-25T19:12:06.326Z,22.93
2022-08-25T19:14:38.507Z,22.90
2022-08-25T19:17:05.244Z,22.83
2022-08-25T19:19:31.877Z,22.73
2022-08-25T19:21:59.219Z,22.62
2022-08-25T19:24:25.832Z,22.56
2022-08-25T19:26:54.791Z,22.51
2022-08-25T19:29:21.864Z,22.47
2022-08-25T19:31:49.047Z,22.42
2022-08-25T19:34:19.502Z,22.38
2022-08-25T19:36:46.563Z,22.33
2022-08-25T19:39:15.376Z,22.29
2022-08-25T19:41:43.489Z,22.24
2022-08-25T19:44:12.046Z,22.22
2022-08-25T19:46:39.566Z,22.20
2022-08-25T19:49:11.898Z,22.19
2022-08-25T19:51:39.442Z,22.18
2022-08-25T19:54:06.866Z,22.17
2022-08-25T19:56:36.368Z,22.14
2022-08-25T19:59:03.643Z,22.08
2022-08-25T20:01:30.119Z,22.02
2022-08-25T20:03:56.975Z,21.93
2022-08-25T20:06:23.661Z,21.86
2022-08-25T20:08:59.259Z,21.82
2022-08-25T20:11:27.518Z,21.79
2022-08-25T20:13:53.951Z,21.75
2022-08-25T20:16:21.058Z,21.70
2022-08-25T20:18:47.661Z,21.60
2022-08-25T20:21:14.088Z,21.55
2022-08-25T20:23:59.221Z,21.48
2022-08-25T20:26:26.912Z,21.44
2022-08-25T20:28:53.414Z,21.38
2022-08-25T20:31:19.879Z,21.32
2022-08-25T20:33:46.894Z,21.28
2022-08-25T20:36:15.543Z,21.25
2022-08-25T20:38:44.666Z,21.24
2022-08-25T20:41:14.383Z,21.20
2022-08-25T20:43:41.848Z,21.16
2022-08-25T20:46:08.850Z,21.16
2022-08-25T20:48:35.763Z,21.11
2022-08-25T20:51:06.453Z,21.10
2022-08-25T20:53:35.358Z,21.09
2022-08-25T20:56:02.579Z,21.08
2022-08-25T20:58:28.960Z,21.04
2022-08-25T21:00:55.474Z,20.97
2022-08-25T21:03:22.183Z,20.90
2022-08-25T21:05:48.660Z,20.84
2022-08-25T21:08:20.547Z,20.80
2022-08-25T21:10:50.516Z,20.77
2022-08-25T21:13:16.906Z,20.71
2022-08-25T21:15:48.483Z,20.68
2022-08-25T21:18:15.242Z,20.65
2022-08-25T21:20:41.645Z,20.60
2022-08-25T21:23:08.518Z,20.57
2022-08-25T21:25:41.907Z,20.54
2022-08-25T21:28:08.881Z,20.53
2022-08-25T21:30:35.331Z,20.50
2022-08-25T21:33:02.200Z,20.50
2022-08-25T21:35:28.686Z,20.48
2022-08-25T21:37:55.879Z,20.45
2022-08-25T21:40:23.179Z,20.42
2022-08-25T21:42:50.206Z,20.38
2022-08-25T21:45:16.661Z,20.35
2022-08-25T21:47:47.438Z,20.31
2022-08-25T21:50:13.913Z,20.28
2022-08-25T21:52:41.228Z,20.26
2022-08-25T21:55:09.247Z,20.23
2022-08-25T21:57:43.035Z,20.24
2022-08-25T22:00:11.626Z,20.21
2022-08-25T22:02:38.575Z,20.20
2022-08-25T22:05:09.154Z,20.16
2022-08-25T22:07:40.472Z,20.15
2022-08-25T22:10:16.825Z,20.14
2022-08-25T22:12:44.737Z,20.16
2022-08-25T22:15:12.478Z,20.11
2022-08-25T22:17:40.552Z,20.10
2022-08-25T22:20:08.010Z,20.10
2022-08-25T22:22:34.552Z,20.08
2022-08-25T22:25:01.014Z,20.08
2022-08-25T22:27:27.765Z,20.07
2022-08-25T22:29:54.395Z,20.10
2022-08-25T22:32:20.839Z,20.11
2022-08-25T22:34:48.337Z,20.08
2022-08-25T22:37:17.926Z,20.07
2022-08-25T22:39:45.529Z,20.07
2022-08-25T22:42:12.170Z,20.07
2022-08-25T22:44:39.855Z,20.06
2022-08-25T22:47:06.877Z,20.02
2022-08-25T22:49:36.856Z,20.00
2022-08-25T22:52:03.916Z,19.97
2022-08-25T22:54:30.304Z,19.93
2022-08-25T22:57:02.322Z,19.92
2022-08-25T22:59:32.392Z,19.90
2022-08-25T23:02:00.331Z,19.87
2022-08-25T23:04:26.821Z,19.86
2022-08-25T23:06:53.399Z,19.86
2022-08-25T23:09:20.668Z,19.82
2022-08-25T23:11:47.846Z,19.80
2022-08-25T23:14:17.992Z,19.77
2022-08-25T23:16:44.522Z,19.78
2022-08-25T23:19:13.569Z,19.76
2022-08-25T23:21:59.006Z,19.72
2022-08-25T23:24:26.894Z,19.58
2022-08-25T23:26:57.690Z,19.39
2022-08-25T23:29:24.657Z,19.27
2022-08-25T23:31:51.984Z,19.21
2022-08-25T23:34:20.266Z,19.18
2022-08-25T23:36:46.713Z,19.18
2022-08-25T23:39:13.154Z,19.20
2022-08-25T23:41:40.099Z,19.21
2022-08-25T23:44:06.523Z,19.18
2022-08-25T23:46:35.996Z,19.18
2022-08-25T23:49:03.975Z,19.17
2022-08-25T23:51:33.599Z,19.17
2022-08-25T23:54:04.011Z,19.14
2022-08-25T23:56:30.492Z,19.09
2022-08-25T23:58:57.014Z,19.06
